createdAt,value
2018-08-17T00:02:40.307Z,10.37
2018-08-17T00:06:43.659Z,11.43
2018-08-17T00:10:47.013Z,8.83
2018-08-17T00:14:50.388Z,9.47
2018-08-17T00:18:53.739Z,10.60
2018-08-17T00:22:57.092Z,10.10
2018-08-17T00:27:00.435Z,10.13
2018-08-17T00:31:03.797Z,10.93
2018-08-17T00:35:07.156Z,11.20
2018-08-17T00:39:11.291Z,11.47
2018-08-17T00:47:24.316Z,11.33
2018-08-17T00:51:27.735Z,11.67
2018-08-17T00:55:31.176Z,10.40
2018-08-17T00:59:34.508Z,10.63
2018-08-17T01:03:38.715Z,11.00
2018-08-17T01:07:42.291Z,10.90
2018-08-17T01:11:45.630Z,11.97
2018-08-17T01:15:48.980Z,12.23
2018-08-17T01:19:52.075Z,13.47
2018-08-17T01:23:55.417Z,13.13
2018-08-17T01:27:58.771Z,11.93
2018-08-17T01:32:02.149Z,12.80
2018-08-17T01:36:05.831Z,11.63
2018-08-17T01:40:09.183Z,11.40
2018-08-17T01:44:12.516Z,10.80
2018-08-17T01:48:15.865Z,9.67
2018-08-17T01:52:19.239Z,10.83
2018-08-17T01:56:22.580Z,10.57
2018-08-17T02:00:26.015Z,11.63
2018-08-17T02:04:29.383Z,11.37
2018-08-17T02:08:32.775Z,10.50
2018-08-17T02:12:36.259Z,12.17
2018-08-17T02:16:40.880Z,12.53
2018-08-17T02:20:44.210Z,11.20
2018-08-17T02:24:47.661Z,12.10
2018-08-17T02:28:51.015Z,11.00
2018-08-17T02:32:54.325Z,11.03
2018-08-17T02:36:57.778Z,10.83
2018-08-17T02:41:01.189Z,11.50
2018-08-17T02:45:05.385Z,11.87
2018-08-17T02:49:08.724Z,12.00
2018-08-17T02:53:12.049Z,12.43
2018-08-17T02:57:15.387Z,12.40
2018-08-17T03:01:18.744Z,12.37
2018-08-17T03:05:22.107Z,13.20
2018-08-17T03:09:25.460Z,12.80
2018-08-17T03:13:28.784Z,12.50
2018-08-17T03:17:32.122Z,13.10
2018-08-17T03:21:35.569Z,14.47
2018-08-17T03:25:39.282Z,15.57
2018-08-17T03:29:42.638Z,14.17
2018-08-17T03:33:46.026Z,14.07
2018-08-17T03:37:49.394Z,14.00
2018-08-17T03:41:52.731Z,15.20
2018-08-17T03:45:56.078Z,15.93
2018-08-17T03:49:59.427Z,16.30
2018-08-17T03:54:02.761Z,15.60
2018-08-17T03:58:06.122Z,14.63
2018-08-17T04:02:09.485Z,14.97
2018-08-17T04:06:13.039Z,16.90
2018-08-17T04:10:16.383Z,18.67
2018-08-17T04:14:19.721Z,20.40
2018-08-17T04:18:23.062Z,21.00
2018-08-17T04:22:26.392Z,22.57
2018-08-17T04:26:29.739Z,21.57
2018-08-17T04:30:33.146Z,23.33
2018-08-17T04:34:36.467Z,23.90
2018-08-17T04:38:39.847Z,24.33
2018-08-17T04:42:43.211Z,23.37
2018-08-17T04:46:46.528Z,24.83
2018-08-17T04:50:49.941Z,24.47
2018-08-17T04:54:53.270Z,24.57
2018-08-17T04:58:56.600Z,25.27
2018-08-17T05:02:59.946Z,24.10
2018-08-17T05:07:03.309Z,24.40
2018-08-17T05:11:06.680Z,24.37
2018-08-17T05:15:10.743Z,24.17
2018-08-17T05:19:14.075Z,24.33
2018-08-17T05:23:17.455Z,23.37
2018-08-17T05:27:20.784Z,23.43
2018-08-17T05:31:24.133Z,21.73
2018-08-17T05:35:27.468Z,23.33
2018-08-17T05:39:30.821Z,22.73
2018-08-17T05:43:34.212Z,22.10
2018-08-17T05:47:37.704Z,21.97
2018-08-17T05:51:41.063Z,21.63
2018-08-17T05:55:44.447Z,22.33
2018-08-17T05:59:47.774Z,21.00
2018-08-17T06:03:51.122Z,22.17
2018-08-17T06:07:54.479Z,20.40
2018-08-17T06:11:57.796Z,23.87
2018-08-17T06:16:01.246Z,20.77
2018-08-17T06:20:05.703Z,19.40
2018-08-17T06:24:09.031Z,18.13
2018-08-17T06:28:12.384Z,18.03
2018-08-17T06:32:15.816Z,16.70
2018-08-17T06:36:19.151Z,16.87
2018-08-17T06:40:22.519Z,14.90
2018-08-17T06:44:25.944Z,13.30
2018-08-17T06:48:29.297Z,12.93
2018-08-17T06:52:32.701Z,10.97
2018-08-17T06:56:36.042Z,10.07
2018-08-17T07:00:39.407Z,8.67
2018-08-17T07:04:42.796Z,8.97
2018-08-17T07:08:46.233Z,10.63
2018-08-17T07:12:49.627Z,12.93
2018-08-17T07:16:52.999Z,10.20
2018-08-17T07:20:56.358Z,10.07
2018-08-17T07:24:59.722Z,10.00
2018-08-17T07:29:03.096Z,9.77
2018-08-17T07:33:06.446Z,10.27
2018-08-17T07:37:09.808Z,9.10
2018-08-17T07:41:13.355Z,9.10
2018-08-17T07:45:16.717Z,8.67
2018-08-17T07:49:19.863Z,7.97
2018-08-17T07:53:22.996Z,8.03
2018-08-17T07:57:26.140Z,7.83
2018-08-17T08:01:29.372Z,7.40
2018-08-17T08:05:33.608Z,7.50
2018-08-17T08:09:36.739Z,7.53
2018-08-17T08:13:39.913Z,6.33
2018-08-17T08:17:43.054Z,6.30
2018-08-17T08:21:53.106Z,6.83
2018-08-17T08:25:56.776Z,5.40
2018-08-17T08:29:59.842Z,5.13
2018-08-17T08:34:02.938Z,4.27
2018-08-17T08:38:06.231Z,5.13
2018-08-17T08:42:10.710Z,5.77
2018-08-17T08:46:13.838Z,5.07
2018-08-17T08:50:16.999Z,4.30
2018-08-17T08:54:20.098Z,5.97
2018-08-17T08:58:23.434Z,6.03
2018-08-17T09:02:26.759Z,8.00
2018-08-17T09:06:30.143Z,7.00
2018-08-17T09:10:33.471Z,7.77
2018-08-17T09:14:36.808Z,7.53
2018-08-17T09:18:40.163Z,7.87
2018-08-17T09:22:43.638Z,7.90
2018-08-17T09:26:46.968Z,8.80
2018-08-17T09:30:50.295Z,8.57
2018-08-17T09:34:53.658Z,8.97
2018-08-17T09:38:57.179Z,8.90
2018-08-17T09:43:00.507Z,9.13
2018-08-17T09:47:03.882Z,8.87
2018-08-17T09:51:07.223Z,10.53
2018-08-17T09:55:10.588Z,10.30
2018-08-17T09:59:13.968Z,11.10
2018-08-17T10:03:22.747Z,11.63
2018-08-17T10:07:31.506Z,10.73
2018-08-17T10:11:34.854Z,11.50
2018-08-17T10:15:39.451Z,11.87
2018-08-17T10:19:42.783Z,11.43
2018-08-17T10:23:46.098Z,11.17
2018-08-17T10:27:51.574Z,12.13
2018-08-17T10:31:54.929Z,9.13
2018-08-17T10:35:58.255Z,9.70
2018-08-17T10:40:01.598Z,8.97
2018-08-17T10:44:09.057Z,8.13
2018-08-17T10:48:12.397Z,6.53
2018-08-17T10:52:15.718Z,6.60
2018-08-17T10:56:19.037Z,7.50
2018-08-17T11:00:22.649Z,8.03
2018-08-17T11:04:26.056Z,9.33
2018-08-17T11:08:29.400Z,10.13
2018-08-17T11:12:32.843Z,11.30
2018-08-17T11:16:36.197Z,10.27
2018-08-17T11:20:39.515Z,9.70
2018-08-17T11:24:42.832Z,7.77
2018-08-17T11:28:46.202Z,8.47
2018-08-17T11:32:53.238Z,8.40
2018-08-17T11:36:56.562Z,8.73
2018-08-17T11:40:59.951Z,8.47
2018-08-17T11:45:05.617Z,8.30
2018-08-17T11:49:12.880Z,8.30
2018-08-17T11:53:16.230Z,7.50
2018-08-17T11:57:19.596Z,6.83
2018-08-17T12:01:26.867Z,6.60
2018-08-17T12:05:30.219Z,6.60
2018-08-17T12:09:37.321Z,5.23
2018-08-17T12:13:40.719Z,4.70
2018-08-17T12:17:44.070Z,4.50
2018-08-17T12:21:47.463Z,4.20
2018-08-17T12:25:57.348Z,4.10
2018-08-17T12:30:07.949Z,3.10
2018-08-17T12:34:11.306Z,4.33
2018-08-17T12:38:20.604Z,3.57
2018-08-17T12:42:24.487Z,3.20
2018-08-17T12:46:27.845Z,3.47
2018-08-17T12:50:31.198Z,3.40
2018-08-17T12:54:35.220Z,3.30
2018-08-17T12:58:38.573Z,3.53
2018-08-17T13:02:41.976Z,3.80
2018-08-17T13:06:45.376Z,3.73
2018-08-17T13:10:48.728Z,3.40
2018-08-17T13:14:52.195Z,3.30
2018-08-17T13:18:55.536Z,3.00
2018-08-17T13:22:58.923Z,2.50
2018-08-17T13:27:02.266Z,2.37
2018-08-17T13:31:05.591Z,2.70
2018-08-17T13:35:08.956Z,2.70
2018-08-17T13:39:12.344Z,2.60
2018-08-17T13:43:15.695Z,3.17
2018-08-17T13:47:19.031Z,2.63
2018-08-17T13:51:22.351Z,2.17
2018-08-17T13:55:25.802Z,1.90
2018-08-17T13:59:29.066Z,2.20
2018-08-17T14:03:33.422Z,4.23
2018-08-17T14:07:43.554Z,2.37
2018-08-17T14:11:46.863Z,2.50
2018-08-17T14:15:50.291Z,3.00
2018-08-17T14:19:53.620Z,2.43
2018-08-17T14:23:56.963Z,2.20
2018-08-17T14:28:00.312Z,1.80
2018-08-17T14:32:03.659Z,1.90
2018-08-17T14:36:15.946Z,1.83
2018-08-17T14:40:19.314Z,2.30
2018-08-17T14:44:22.647Z,2.63
2018-08-17T14:48:25.998Z,2.20
2018-08-17T14:52:30.816Z,4.10
2018-08-17T14:56:35.347Z,5.00
2018-08-17T15:00:40.503Z,5.57
2018-08-17T15:04:43.868Z,6.10
2018-08-17T15:08:48.190Z,6.00
2018-08-17T15:12:58.366Z,4.77
2018-08-17T15:17:01.766Z,5.83
2018-08-17T15:21:05.571Z,5.47
2018-08-17T15:25:08.944Z,5.30
2018-08-17T15:29:12.288Z,5.30
2018-08-17T15:33:15.950Z,5.10
2018-08-17T15:37:19.508Z,5.07
2018-08-17T15:41:23.012Z,5.43
2018-08-17T15:45:26.368Z,36.97
2018-08-17T15:49:36.110Z,52.93
2018-08-17T15:53:40.348Z,6.53
2018-08-17T15:57:48.537Z,6.27
2018-08-17T16:01:53.228Z,25.87
2018-08-17T16:05:56.583Z,4.93
2018-08-17T16:09:59.928Z,4.90
2018-08-17T16:14:03.487Z,4.40
2018-08-17T16:18:06.867Z,4.40
2018-08-17T16:22:10.282Z,4.43
2018-08-17T16:26:13.647Z,23.47
2018-08-17T16:30:20.589Z,4.70
2018-08-17T16:34:24.877Z,4.67
2018-08-17T16:38:35.684Z,5.40
2018-08-17T16:42:39.045Z,4.13
2018-08-17T16:46:43.800Z,3.53
2018-08-17T16:50:47.222Z,2.90
2018-08-17T16:54:50.672Z,3.27
2018-08-17T16:58:54.008Z,2.60
2018-08-17T17:02:57.372Z,3.43
2018-08-17T17:07:00.713Z,3.23
2018-08-17T17:11:06.043Z,3.43
2018-08-17T17:15:15.149Z,3.40
2018-08-17T17:19:19.704Z,3.20
2018-08-17T17:23:23.027Z,3.17
2018-08-17T17:27:26.440Z,3.20
2018-08-17T17:31:29.810Z,3.43
2018-08-17T17:35:33.131Z,3.63
2018-08-17T17:39:36.475Z,3.40
2018-08-17T17:43:39.801Z,3.30
2018-08-17T17:47:43.127Z,3.37
2018-08-17T17:51:46.485Z,4.10
2018-08-17T17:55:50.234Z,4.03
2018-08-17T17:59:57.457Z,3.90
2018-08-17T18:04:00.808Z,3.97
2018-08-17T18:08:09.523Z,3.47
2018-08-17T18:12:15.971Z,4.00
2018-08-17T18:16:20.321Z,3.70
2018-08-17T18:20:24.641Z,3.57
2018-08-17T18:24:28.589Z,4.10
2018-08-17T18:28:38.661Z,3.80
2018-08-17T18:32:42.081Z,4.23
2018-08-17T18:36:45.425Z,5.90
2018-08-17T18:40:48.776Z,4.80
2018-08-17T18:44:52.546Z,4.00
2018-08-17T18:48:55.907Z,4.67
2018-08-17T18:52:59.255Z,5.30
2018-08-17T18:57:02.625Z,6.90
2018-08-17T19:01:07.645Z,4.53
2018-08-17T19:05:11.457Z,14.47
2018-08-17T19:09:14.832Z,4.20
2018-08-17T19:13:18.398Z,8.60
2018-08-17T19:17:28.183Z,4.87
2018-08-17T19:21:31.580Z,5.33
2018-08-17T19:25:39.926Z,4.83
2018-08-17T19:29:43.303Z,4.97
2018-08-17T19:33:46.663Z,5.57
2018-08-17T19:37:50.968Z,6.20
2018-08-17T19:41:54.672Z,4.60
2018-08-17T19:45:58.061Z,4.50
2018-08-17T19:50:01.476Z,4.50
2018-08-17T19:54:04.792Z,4.90
2018-08-17T19:58:08.232Z,4.60
2018-08-17T20:02:11.580Z,4.27
2018-08-17T20:06:18.844Z,4.23
2018-08-17T20:10:22.263Z,4.20
2018-08-17T20:14:25.637Z,4.17
2018-08-17T20:18:31.076Z,4.77
2018-08-17T20:22:34.476Z,4.73
2018-08-17T20:26:41.934Z,4.97
2018-08-17T20:30:45.896Z,4.73
2018-08-17T20:34:49.813Z,5.00
2018-08-17T20:38:53.139Z,4.73
2018-08-17T20:42:56.483Z,4.50
2018-08-17T20:46:59.824Z,14.77
2018-08-17T20:51:07.036Z,7.53
2018-08-17T20:55:11.971Z,5.33
2018-08-17T20:59:15.481Z,3.93
2018-08-17T21:03:19.942Z,4.77
2018-08-17T21:07:23.391Z,5.03
2018-08-17T21:11:26.723Z,5.13
2018-08-17T21:15:30.112Z,4.73
2018-08-17T21:19:41.599Z,4.90
2018-08-17T21:23:44.985Z,4.50
2018-08-17T21:27:48.868Z,5.03
2018-08-17T21:31:52.585Z,4.90
2018-08-17T21:35:56.091Z,4.77
2018-08-17T21:40:02.421Z,4.70
2018-08-17T21:44:07.538Z,4.53
2018-08-17T21:48:15.403Z,5.33
2018-08-17T21:52:24.066Z,4.60
2018-08-17T21:56:27.404Z,4.70
2018-08-17T22:00:32.811Z,5.40
2018-08-17T22:04:36.162Z,5.07
2018-08-17T22:08:39.702Z,4.63
2018-08-17T22:12:43.071Z,5.63
2018-08-17T22:16:46.349Z,6.30
2018-08-17T22:20:49.721Z,5.63
2018-08-17T22:24:56.167Z,5.40
2018-08-17T22:28:59.791Z,5.73
2018-08-17T22:33:03.132Z,4.87
2018-08-17T22:37:06.519Z,6.57
2018-08-17T22:41:10.260Z,6.07
2018-08-17T22:45:13.608Z,6.10
2018-08-17T22:49:16.944Z,5.87
2018-08-17T22:53:20.288Z,5.77
2018-08-17T22:57:23.752Z,7.50
2018-08-17T23:01:30.623Z,6.53
2018-08-17T23:05:37.437Z,5.50
2018-08-17T23:09:40.766Z,6.57
2018-08-17T23:13:44.082Z,7.30
2018-08-17T23:17:58.115Z,6.37
2018-08-17T23:22:01.454Z,5.67
2018-08-17T23:26:04.799Z,5.23
2018-08-17T23:30:08.139Z,5.70
2018-08-17T23:34:12.272Z,5.57
2018-08-17T23:38:18.400Z,5.13
2018-08-17T23:42:21.734Z,5.70
2018-08-17T23:46:25.059Z,6.07
2018-08-17T23:50:28.403Z,5.83
2018-08-17T23:54:31.776Z,5.77
2018-08-17T23:58:35.198Z,6.30
